sensor_id;sensor_type;location;lat;lon;timestamp;P1;durP1;ratioP1;P2;durP2;ratioP2
51985;SDS011;38002;53.296;6.600;2022-10-16T00:02:55;2.80;;;1.58;;
51985;SDS011;38002;53.296;6.600;2022-10-16T00:07:55;3.03;;;1.10;;
51985;SDS011;38002;53.296;6.600;2022-10-16T00:12:56;4.10;;;2.10;;
51985;SDS011;38002;53.296;6.600;2022-10-16T00:17:56;7.03;;;1.40;;
51985;SDS011;38002;53.296;6.600;2022-10-16T00:22:57;6.43;;;1.65;;
51985;SDS011;38002;53.296;6.600;2022-10-16T00:27:57;6.78;;;1.50;;
51985;SDS011;38002;53.296;6.600;2022-10-16T00:32:58;4.87;;;1.63;;
51985;SDS011;38002;53.296;6.600;2022-10-16T00:37:59;7.55;;;1.30;;
51985;SDS011;38002;53.296;6.600;2022-10-16T00:42:59;1.83;;;0.95;;
51985;SDS011;38002;53.296;6.600;2022-10-16T00:48:00;5.03;;;1.60;;
51985;SDS011;38002;53.296;6.600;2022-10-16T00:53:00;7.72;;;2.05;;
51985;SDS011;38002;53.296;6.600;2022-10-16T00:58:01;4.00;;;1.43;;
51985;SDS011;38002;53.296;6.600;2022-10-16T01:03:02;3.53;;;1.15;;
51985;SDS011;38002;53.296;6.600;2022-10-16T01:08:34;8.18;;;1.50;;
51985;SDS011;38002;53.296;6.600;2022-10-16T01:13:46;3.67;;;1.02;;
51985;SDS011;38002;53.296;6.600;2022-10-16T01:18:52;4.82;;;1.00;;
51985;SDS011;38002;53.296;6.600;2022-10-16T01:29:20;5.72;;;1.00;;
51985;SDS011;38002;53.296;6.600;2022-10-16T01:34:30;0.80;;;0.80;;
51985;SDS011;38002;53.296;6.600;2022-10-16T01:39:35;4.15;;;1.23;;
51985;SDS011;38002;53.296;6.600;2022-10-16T01:44:39;6.82;;;1.17;;
51985;SDS011;38002;53.296;6.600;2022-10-16T01:49:41;2.88;;;1.02;;
51985;SDS011;38002;53.296;6.600;2022-10-16T01:54:44;6.72;;;1.10;;
51985;SDS011;38002;53.296;6.600;2022-10-16T01:59:48;1.13;;;0.73;;
51985;SDS011;38002;53.296;6.600;2022-10-16T02:04:53;6.13;;;1.20;;
51985;SDS011;38002;53.296;6.600;2022-10-16T02:09:59;4.95;;;1.20;;
51985;SDS011;38002;53.296;6.600;2022-10-16T02:15:00;2.50;;;1.20;;
51985;SDS011;38002;53.296;6.600;2022-10-16T02:20:01;3.45;;;1.40;;
51985;SDS011;38002;53.296;6.600;2022-10-16T02:25:03;6.28;;;1.17;;
51985;SDS011;38002;53.296;6.600;2022-10-16T02:35:21;3.53;;;1.20;;
51985;SDS011;38002;53.296;6.600;2022-10-16T02:40:23;5.30;;;1.30;;
51985;SDS011;38002;53.296;6.600;2022-10-16T02:45:25;5.20;;;1.27;;
51985;SDS011;38002;53.296;6.600;2022-10-16T02:50:26;3.95;;;1.50;;
51985;SDS011;38002;53.296;6.600;2022-10-16T02:55:26;5.25;;;1.42;;
51985;SDS011;38002;53.296;6.600;2022-10-16T03:00:27;1.30;;;1.00;;
51985;SDS011;38002;53.296;6.600;2022-10-16T03:05:28;4.03;;;1.10;;
51985;SDS011;38002;53.296;6.600;2022-10-16T03:10:30;1.65;;;0.90;;
51985;SDS011;38002;53.296;6.600;2022-10-16T03:15:30;2.22;;;1.02;;
51985;SDS011;38002;53.296;6.600;2022-10-16T03:20:31;3.72;;;1.10;;
51985;SDS011;38002;53.296;6.600;2022-10-16T03:25:31;2.25;;;1.20;;
51985;SDS011;38002;53.296;6.600;2022-10-16T03:30:32;2.78;;;1.30;;
51985;SDS011;38002;53.296;6.600;2022-10-16T03:35:32;4.22;;;1.17;;
51985;SDS011;38002;53.296;6.600;2022-10-16T03:40:33;4.35;;;1.35;;
51985;SDS011;38002;53.296;6.600;2022-10-16T03:45:33;3.00;;;1.17;;
51985;SDS011;38002;53.296;6.600;2022-10-16T03:50:34;4.97;;;1.30;;
51985;SDS011;38002;53.296;6.600;2022-10-16T03:55:34;1.10;;;1.00;;
51985;SDS011;38002;53.296;6.600;2022-10-16T04:00:35;3.78;;;1.15;;
51985;SDS011;38002;53.296;6.600;2022-10-16T04:05:35;6.20;;;1.45;;
51985;SDS011;38002;53.296;6.600;2022-10-16T04:10:36;1.80;;;0.95;;
51985;SDS011;38002;53.296;6.600;2022-10-16T04:15:36;3.72;;;1.48;;
51985;SDS011;38002;53.296;6.600;2022-10-16T04:20:37;2.28;;;1.10;;
51985;SDS011;38002;53.296;6.600;2022-10-16T04:25:37;1.30;;;1.20;;
51985;SDS011;38002;53.296;6.600;2022-10-16T04:30:38;11.90;;;1.33;;
51985;SDS011;38002;53.296;6.600;2022-10-16T04:35:39;1.30;;;1.15;;
51985;SDS011;38002;53.296;6.600;2022-10-16T04:40:41;2.50;;;1.23;;
51985;SDS011;38002;53.296;6.600;2022-10-16T04:45:42;7.93;;;1.80;;
51985;SDS011;38002;53.296;6.600;2022-10-16T04:50:42;2.63;;;1.40;;
51985;SDS011;38002;53.296;6.600;2022-10-16T04:55:42;1.98;;;1.30;;
51985;SDS011;38002;53.296;6.600;2022-10-16T05:00:44;1.73;;;1.33;;
51985;SDS011;38002;53.296;6.600;2022-10-16T05:05:45;3.13;;;1.52;;
51985;SDS011;38002;53.296;6.600;2022-10-16T05:10:46;3.63;;;1.42;;
51985;SDS011;38002;53.296;6.600;2022-10-16T05:15:47;4.43;;;1.50;;
51985;SDS011;38002;53.296;6.600;2022-10-16T05:20:48;2.35;;;1.40;;
51985;SDS011;38002;53.296;6.600;2022-10-16T05:25:55;3.00;;;1.30;;
51985;SDS011;38002;53.296;6.600;2022-10-16T05:30:58;4.15;;;1.35;;
51985;SDS011;38002;53.296;6.600;2022-10-16T05:36:06;5.40;;;1.40;;
51985;SDS011;38002;53.296;6.600;2022-10-16T05:41:08;5.55;;;2.47;;
51985;SDS011;38002;53.296;6.600;2022-10-16T05:46:09;4.38;;;1.50;;
51985;SDS011;38002;53.296;6.600;2022-10-16T05:51:10;6.43;;;1.60;;
51985;SDS011;38002;53.296;6.600;2022-10-16T05:56:12;1.88;;;1.40;;
51985;SDS011;38002;53.296;6.600;2022-10-16T06:01:14;8.38;;;1.70;;
51985;SDS011;38002;53.296;6.600;2022-10-16T06:06:17;2.38;;;1.45;;
51985;SDS011;38002;53.296;6.600;2022-10-16T06:11:27;7.65;;;1.70;;
51985;SDS011;38002;53.296;6.600;2022-10-16T06:16:29;2.65;;;2.05;;
51985;SDS011;38002;53.296;6.600;2022-10-16T06:21:30;4.60;;;1.60;;
51985;SDS011;38002;53.296;6.600;2022-10-16T06:26:30;4.88;;;1.50;;
51985;SDS011;38002;53.296;6.600;2022-10-16T06:31:31;5.73;;;2.00;;
51985;SDS011;38002;53.296;6.600;2022-10-16T06:36:33;4.53;;;1.80;;
51985;SDS011;38002;53.296;6.600;2022-10-16T06:41:33;7.00;;;2.20;;
51985;SDS011;38002;53.296;6.600;2022-10-16T06:46:34;6.50;;;2.38;;
51985;SDS011;38002;53.296;6.600;2022-10-16T06:51:35;2.40;;;1.85;;
51985;SDS011;38002;53.296;6.600;2022-10-16T06:56:40;3.42;;;1.90;;
51985;SDS011;38002;53.296;6.600;2022-10-16T07:01:40;3.63;;;2.00;;
51985;SDS011;38002;53.296;6.600;2022-10-16T07:06:41;5.72;;;2.13;;
51985;SDS011;38002;53.296;6.600;2022-10-16T07:11:41;2.00;;;1.80;;
51985;SDS011;38002;53.296;6.600;2022-10-16T07:16:42;2.53;;;1.92;;
51985;SDS011;38002;53.296;6.600;2022-10-16T07:21:43;2.53;;;1.55;;
51985;SDS011;38002;53.296;6.600;2022-10-16T07:26:45;5.65;;;1.63;;
51985;SDS011;38002;53.296;6.600;2022-10-16T07:31:46;7.00;;;2.13;;
51985;SDS011;38002;53.296;6.600;2022-10-16T07:36:48;7.95;;;2.17;;
51985;SDS011;38002;53.296;6.600;2022-10-16T07:41:49;2.83;;;1.30;;
51985;SDS011;38002;53.296;6.600;2022-10-16T07:46:50;1.85;;;1.70;;
51985;SDS011;38002;53.296;6.600;2022-10-16T07:51:50;5.38;;;1.40;;
51985;SDS011;38002;53.296;6.600;2022-10-16T07:56:50;3.15;;;1.80;;
51985;SDS011;38002;53.296;6.600;2022-10-16T08:01:51;4.80;;;2.05;;
51985;SDS011;38002;53.296;6.600;2022-10-16T08:06:51;4.05;;;1.67;;
51985;SDS011;38002;53.296;6.600;2022-10-16T08:11:52;4.95;;;1.50;;
51985;SDS011;38002;53.296;6.600;2022-10-16T08:16:52;3.30;;;1.40;;
51985;SDS011;38002;53.296;6.600;2022-10-16T08:21:53;5.25;;;2.28;;
51985;SDS011;38002;53.296;6.600;2022-10-16T08:26:53;4.25;;;2.40;;
51985;SDS011;38002;53.296;6.600;2022-10-16T08:31:54;3.63;;;2.20;;
51985;SDS011;38002;53.296;6.600;2022-10-16T08:36:55;5.68;;;1.90;;
51985;SDS011;38002;53.296;6.600;2022-10-16T08:52:20;6.22;;;1.83;;
51985;SDS011;38002;53.296;6.600;2022-10-16T08:57:21;5.40;;;1.75;;
51985;SDS011;38002;53.296;6.600;2022-10-16T09:14:00;6.05;;;1.55;;
51985;SDS011;38002;53.296;6.600;2022-10-16T09:23:48;7.53;;;1.85;;
51985;SDS011;38002;53.296;6.600;2022-10-16T09:28:51;6.07;;;1.67;;
51985;SDS011;38002;53.296;6.600;2022-10-16T09:33:59;6.75;;;1.88;;
51985;SDS011;38002;53.296;6.600;2022-10-16T09:39:07;7.85;;;1.35;;
51985;SDS011;38002;53.296;6.600;2022-10-16T09:44:26;6.45;;;1.60;;
51985;SDS011;38002;53.296;6.600;2022-10-16T09:49:29;9.43;;;1.40;;
51985;SDS011;38002;53.296;6.600;2022-10-16T09:54:30;9.23;;;1.60;;
51985;SDS011;38002;53.296;6.600;2022-10-16T09:59:30;8.95;;;1.80;;
51985;SDS011;38002;53.296;6.600;2022-10-16T10:04:38;5.97;;;1.47;;
51985;SDS011;38002;53.296;6.600;2022-10-16T10:09:51;8.45;;;3.92;;
51985;SDS011;38002;53.296;6.600;2022-10-16T10:14:53;3.53;;;1.67;;
51985;SDS011;38002;53.296;6.600;2022-10-16T10:20:00;8.48;;;1.95;;
51985;SDS011;38002;53.296;6.600;2022-10-16T10:25:25;12.68;;;2.05;;
51985;SDS011;38002;53.296;6.600;2022-10-16T10:46:00;8.68;;;1.70;;
51985;SDS011;38002;53.296;6.600;2022-10-16T10:51:04;6.93;;;1.23;;
51985;SDS011;38002;53.296;6.600;2022-10-16T11:01:41;7.15;;;1.40;;
51985;SDS011;38002;53.296;6.600;2022-10-16T11:07:11;12.75;;;1.65;;
51985;SDS011;38002;53.296;6.600;2022-10-16T11:17:40;11.48;;;1.50;;
51985;SDS011;38002;53.296;6.600;2022-10-16T11:22:50;13.82;;;1.67;;
51985;SDS011;38002;53.296;6.600;2022-10-16T11:28:09;5.93;;;1.25;;
51985;SDS011;38002;53.296;6.600;2022-10-16T11:38:21;7.10;;;1.17;;
51985;SDS011;38002;53.296;6.600;2022-10-16T11:48:47;9.23;;;1.42;;
51985;SDS011;38002;53.296;6.600;2022-10-16T11:53:59;8.20;;;1.50;;
51985;SDS011;38002;53.296;6.600;2022-10-16T11:59:10;8.80;;;1.52;;
51985;SDS011;38002;53.296;6.600;2022-10-16T12:04:37;16.20;;;1.67;;
51985;SDS011;38002;53.296;6.600;2022-10-16T12:09:46;8.93;;;1.52;;
51985;SDS011;38002;53.296;6.600;2022-10-16T12:14:47;6.23;;;1.27;;
51985;SDS011;38002;53.296;6.600;2022-10-16T12:20:00;7.33;;;1.67;;
51985;SDS011;38002;53.296;6.600;2022-10-16T12:25:32;7.28;;;1.33;;
51985;SDS011;38002;53.296;6.600;2022-10-16T12:30:35;7.88;;;1.80;;
51985;SDS011;38002;53.296;6.600;2022-10-16T12:35:43;8.35;;;1.42;;
51985;SDS011;38002;53.296;6.600;2022-10-16T12:40:46;13.43;;;2.15;;
51985;SDS011;38002;53.296;6.600;2022-10-16T12:51:51;8.15;;;1.15;;
51985;SDS011;38002;53.296;6.600;2022-10-16T13:13:11;7.30;;;1.90;;
51985;SDS011;38002;53.296;6.600;2022-10-16T13:29:14;7.43;;;1.65;;
51985;SDS011;38002;53.296;6.600;2022-10-16T13:34:19;7.37;;;1.20;;
51985;SDS011;38002;53.296;6.600;2022-10-16T13:39:23;4.85;;;1.77;;
51985;SDS011;38002;53.296;6.600;2022-10-16T13:44:25;8.73;;;2.13;;
51985;SDS011;38002;53.296;6.600;2022-10-16T13:49:26;7.70;;;1.90;;
51985;SDS011;38002;53.296;6.600;2022-10-16T13:54:27;12.17;;;1.60;;
51985;SDS011;38002;53.296;6.600;2022-10-16T13:59:35;13.57;;;1.15;;
51985;SDS011;38002;53.296;6.600;2022-10-16T14:04:38;9.15;;;1.70;;
51985;SDS011;38002;53.296;6.600;2022-10-16T14:09:39;13.53;;;1.77;;
51985;SDS011;38002;53.296;6.600;2022-10-16T14:14:44;15.47;;;2.30;;
51985;SDS011;38002;53.296;6.600;2022-10-16T14:19:47;7.90;;;2.05;;
51985;SDS011;38002;53.296;6.600;2022-10-16T14:24:49;9.90;;;1.65;;
51985;SDS011;38002;53.296;6.600;2022-10-16T14:29:50;9.37;;;2.50;;
51985;SDS011;38002;53.296;6.600;2022-10-16T14:34:54;4.67;;;1.23;;
51985;SDS011;38002;53.296;6.600;2022-10-16T14:39:55;7.10;;;1.15;;
51985;SDS011;38002;53.296;6.600;2022-10-16T14:44:56;9.18;;;2.03;;
51985;SDS011;38002;53.296;6.600;2022-10-16T14:49:57;9.40;;;1.27;;
51985;SDS011;38002;53.296;6.600;2022-10-16T14:54:59;11.38;;;1.35;;
51985;SDS011;38002;53.296;6.600;2022-10-16T15:00:00;2.70;;;0.90;;
51985;SDS011;38002;53.296;6.600;2022-10-16T15:05:11;12.23;;;1.50;;
51985;SDS011;38002;53.296;6.600;2022-10-16T15:10:26;8.73;;;1.02;;
51985;SDS011;38002;53.296;6.600;2022-10-16T15:15:32;6.63;;;2.10;;
51985;SDS011;38002;53.296;6.600;2022-10-16T15:20:34;2.78;;;1.23;;
51985;SDS011;38002;53.296;6.600;2022-10-16T15:25:38;8.00;;;1.20;;
51985;SDS011;38002;53.296;6.600;2022-10-16T15:30:44;10.52;;;1.67;;
51985;SDS011;38002;53.296;6.600;2022-10-16T15:35:46;4.72;;;1.27;;
51985;SDS011;38002;53.296;6.600;2022-10-16T15:40:48;8.93;;;1.75;;
51985;SDS011;38002;53.296;6.600;2022-10-16T15:45:58;4.93;;;1.37;;
51985;SDS011;38002;53.296;6.600;2022-10-16T15:51:04;6.40;;;1.25;;
51985;SDS011;38002;53.296;6.600;2022-10-16T15:56:06;7.20;;;1.20;;
51985;SDS011;38002;53.296;6.600;2022-10-16T16:01:08;8.52;;;2.13;;
51985;SDS011;38002;53.296;6.600;2022-10-16T16:06:11;5.22;;;1.33;;
51985;SDS011;38002;53.296;6.600;2022-10-16T16:11:13;5.25;;;1.63;;
51985;SDS011;38002;53.296;6.600;2022-10-16T16:16:16;4.45;;;1.45;;
51985;SDS011;38002;53.296;6.600;2022-10-16T16:21:17;6.28;;;2.28;;
51985;SDS011;38002;53.296;6.600;2022-10-16T16:26:22;9.60;;;2.63;;
51985;SDS011;38002;53.296;6.600;2022-10-16T16:31:28;4.13;;;1.55;;
51985;SDS011;38002;53.296;6.600;2022-10-16T16:36:29;9.45;;;1.73;;
51985;SDS011;38002;53.296;6.600;2022-10-16T16:41:30;8.13;;;2.30;;
51985;SDS011;38002;53.296;6.600;2022-10-16T16:46:31;6.72;;;2.40;;
51985;SDS011;38002;53.296;6.600;2022-10-16T16:51:32;15.05;;;2.83;;
51985;SDS011;38002;53.296;6.600;2022-10-16T16:56:33;8.00;;;2.53;;
51985;SDS011;38002;53.296;6.600;2022-10-16T17:01:34;8.00;;;3.63;;
51985;SDS011;38002;53.296;6.600;2022-10-16T17:06:34;22.73;;;10.18;;
51985;SDS011;38002;53.296;6.600;2022-10-16T17:11:35;23.47;;;13.77;;
51985;SDS011;38002;53.296;6.600;2022-10-16T17:16:36;11.63;;;5.50;;
51985;SDS011;38002;53.296;6.600;2022-10-16T17:21:38;8.20;;;2.05;;
51985;SDS011;38002;53.296;6.600;2022-10-16T17:26:39;6.18;;;1.65;;
51985;SDS011;38002;53.296;6.600;2022-10-16T17:31:44;13.27;;;2.03;;
51985;SDS011;38002;53.296;6.600;2022-10-16T17:36:44;11.67;;;3.80;;
51985;SDS011;38002;53.296;6.600;2022-10-16T17:41:46;10.05;;;3.85;;
51985;SDS011;38002;53.296;6.600;2022-10-16T17:46:48;12.13;;;5.00;;
51985;SDS011;38002;53.296;6.600;2022-10-16T17:51:50;16.85;;;4.50;;
51985;SDS011;38002;53.296;6.600;2022-10-16T18:01:52;8.87;;;3.83;;
51985;SDS011;38002;53.296;6.600;2022-10-16T18:06:53;12.77;;;3.75;;
51985;SDS011;38002;53.296;6.600;2022-10-16T18:11:55;12.30;;;3.33;;
51985;SDS011;38002;53.296;6.600;2022-10-16T18:17:01;11.68;;;3.97;;
51985;SDS011;38002;53.296;6.600;2022-10-16T18:22:02;7.50;;;3.10;;
51985;SDS011;38002;53.296;6.600;2022-10-16T18:27:02;5.78;;;3.10;;
51985;SDS011;38002;53.296;6.600;2022-10-16T18:32:03;8.00;;;2.72;;
51985;SDS011;38002;53.296;6.600;2022-10-16T18:37:04;5.30;;;2.40;;
51985;SDS011;38002;53.296;6.600;2022-10-16T18:42:04;16.83;;;3.28;;
51985;SDS011;38002;53.296;6.600;2022-10-16T18:47:04;11.35;;;3.60;;
51985;SDS011;38002;53.296;6.600;2022-10-16T18:52:05;8.77;;;2.95;;
51985;SDS011;38002;53.296;6.600;2022-10-16T18:57:06;11.60;;;2.58;;
51985;SDS011;38002;53.296;6.600;2022-10-16T19:02:07;22.55;;;3.72;;
51985;SDS011;38002;53.296;6.600;2022-10-16T19:07:11;11.57;;;2.53;;
51985;SDS011;38002;53.296;6.600;2022-10-16T19:12:14;10.48;;;2.28;;
51985;SDS011;38002;53.296;6.600;2022-10-16T19:17:15;6.97;;;1.98;;
51985;SDS011;38002;53.296;6.600;2022-10-16T19:22:15;10.65;;;2.70;;
51985;SDS011;38002;53.296;6.600;2022-10-16T19:27:48;7.88;;;2.30;;
51985;SDS011;38002;53.296;6.600;2022-10-16T19:32:50;7.22;;;2.40;;
51985;SDS011;38002;53.296;6.600;2022-10-16T19:37:52;10.80;;;2.60;;
51985;SDS011;38002;53.296;6.600;2022-10-16T19:42:52;6.75;;;2.40;;
51985;SDS011;38002;53.296;6.600;2022-10-16T19:47:53;6.55;;;2.80;;
51985;SDS011;38002;53.296;6.600;2022-10-16T19:52:53;10.70;;;3.40;;
51985;SDS011;38002;53.296;6.600;2022-10-16T19:57:54;6.53;;;3.13;;
51985;SDS011;38002;53.296;6.600;2022-10-16T20:02:54;6.03;;;3.10;;
51985;SDS011;38002;53.296;6.600;2022-10-16T20:07:55;10.98;;;3.53;;
51985;SDS011;38002;53.296;6.600;2022-10-16T20:12:55;7.95;;;3.28;;
51985;SDS011;38002;53.296;6.600;2022-10-16T20:17:55;11.93;;;3.67;;
51985;SDS011;38002;53.296;6.600;2022-10-16T20:22:56;7.57;;;3.13;;
51985;SDS011;38002;53.296;6.600;2022-10-16T20:27:56;13.82;;;3.78;;
51985;SDS011;38002;53.296;6.600;2022-10-16T20:32:57;11.02;;;3.67;;
51985;SDS011;38002;53.296;6.600;2022-10-16T20:37:57;9.07;;;3.35;;
51985;SDS011;38002;53.296;6.600;2022-10-16T20:42:58;17.90;;;3.97;;
51985;SDS011;38002;53.296;6.600;2022-10-16T20:47:58;15.43;;;3.17;;
51985;SDS011;38002;53.296;6.600;2022-10-16T20:52:59;13.93;;;3.40;;
51985;SDS011;38002;53.296;6.600;2022-10-16T20:57:59;12.23;;;3.60;;
51985;SDS011;38002;53.296;6.600;2022-10-16T21:03:00;10.38;;;3.30;;
51985;SDS011;38002;53.296;6.600;2022-10-16T21:08:00;5.47;;;2.83;;
51985;SDS011;38002;53.296;6.600;2022-10-16T21:13:00;9.88;;;3.22;;
51985;SDS011;38002;53.296;6.600;2022-10-16T21:18:01;8.25;;;3.30;;
51985;SDS011;38002;53.296;6.600;2022-10-16T21:23:01;7.22;;;3.72;;
51985;SDS011;38002;53.296;6.600;2022-10-16T21:28:02;10.73;;;4.05;;
51985;SDS011;38002;53.296;6.600;2022-10-16T21:33:03;14.32;;;6.10;;
51985;SDS011;38002;53.296;6.600;2022-10-16T21:38:03;10.95;;;3.55;;
51985;SDS011;38002;53.296;6.600;2022-10-16T21:43:05;9.88;;;3.60;;
51985;SDS011;38002;53.296;6.600;2022-10-16T21:48:06;8.63;;;4.05;;
51985;SDS011;38002;53.296;6.600;2022-10-16T21:53:06;5.45;;;3.92;;
51985;SDS011;38002;53.296;6.600;2022-10-16T21:58:07;5.95;;;3.83;;
51985;SDS011;38002;53.296;6.600;2022-10-16T22:03:07;6.28;;;3.88;;
51985;SDS011;38002;53.296;6.600;2022-10-16T22:08:07;6.38;;;3.95;;
51985;SDS011;38002;53.296;6.600;2022-10-16T22:13:08;10.93;;;4.68;;
51985;SDS011;38002;53.296;6.600;2022-10-16T22:18:08;6.70;;;3.85;;
51985;SDS011;38002;53.296;6.600;2022-10-16T22:23:09;6.70;;;4.45;;
51985;SDS011;38002;53.296;6.600;2022-10-16T22:28:09;8.02;;;3.50;;
51985;SDS011;38002;53.296;6.600;2022-10-16T22:33:10;6.55;;;3.72;;
51985;SDS011;38002;53.296;6.600;2022-10-16T22:38:13;13.63;;;4.47;;
51985;SDS011;38002;53.296;6.600;2022-10-16T22:43:13;12.63;;;4.13;;
51985;SDS011;38002;53.296;6.600;2022-10-16T22:48:14;6.43;;;4.53;;
51985;SDS011;38002;53.296;6.600;2022-10-16T22:53:14;6.60;;;4.32;;
51985;SDS011;38002;53.296;6.600;2022-10-16T22:58:15;8.30;;;4.05;;
51985;SDS011;38002;53.296;6.600;2022-10-16T23:03:15;9.90;;;3.88;;
51985;SDS011;38002;53.296;6.600;2022-10-16T23:08:16;19.00;;;4.78;;
51985;SDS011;38002;53.296;6.600;2022-10-16T23:13:16;10.75;;;4.30;;
51985;SDS011;38002;53.296;6.600;2022-10-16T23:18:17;5.32;;;3.22;;
51985;SDS011;38002;53.296;6.600;2022-10-16T23:23:17;13.13;;;4.63;;
51985;SDS011;38002;53.296;6.600;2022-10-16T23:28:18;8.15;;;4.28;;
51985;SDS011;38002;53.296;6.600;2022-10-16T23:33:18;5.28;;;4.15;;
51985;SDS011;38002;53.296;6.600;2022-10-16T23:38:19;7.07;;;3.75;;
51985;SDS011;38002;53.296;6.600;2022-10-16T23:43:19;9.55;;;3.67;;
51985;SDS011;38002;53.296;6.600;2022-10-16T23:48:19;8.15;;;4.35;;
51985;SDS011;38002;53.296;6.600;2022-10-16T23:53:20;11.18;;;4.13;;
51985;SDS011;38002;53.296;6.600;2022-10-16T23:58:21;6.72;;;4.05;;
